Time;durP1;ratioP1;P1;durP2;ratioP2;P2;SDS_P1;SDS_P2;PMS_P1;PMS_P2;Temp;Humidity;BMP_temperature;BMP_pressure;BME280_temperature;BME280_humidity;BME280_pressure;Samples;Min_cycle;Max_cycle;Signal;HPM_P1;HPM_P2
2021/05/30 00:02:16;;;;;;;13.60;8.40;;;12.00;93.90;;;;;;5004672;28;20327;-88
2021/05/30 00:04:42;;;;;;;15.02;8.43;;;12.00;93.90;;;;;;5016836;28;20042;-87
2021/05/30 00:07:07;;;;;;;14.50;8.77;;;12.00;93.90;;;;;;5013274;28;20070;-86
2021/05/30 00:09:34;;;;;;;15.18;9.38;;;11.90;93.90;;;;;;5013504;28;20065;-87
2021/05/30 00:12:00;;;;;;;15.05;8.68;;;11.90;94.00;;;;;;4997722;28;20484;-86
2021/05/30 00:14:26;;;;;;;13.18;8.93;;;11.80;94.10;;;;;;5012637;28;20034;-87
2021/05/30 00:16:51;;;;;;;16.98;8.88;;;11.80;94.00;;;;;;4996196;28;20129;-86
2021/05/30 00:19:18;;;;;;;16.75;9.40;;;11.80;94.10;;;;;;5005828;28;20034;-87
2021/05/30 00:21:44;;;;;;;14.63;8.75;;;11.80;94.10;;;;;;5007580;28;20048;-86
2021/05/30 00:24:10;;;;;;;15.15;8.98;;;11.70;94.20;;;;;;5013420;28;20121;-86
2021/05/30 00:26:35;;;;;;;16.30;9.30;;;11.70;94.30;;;;;;5013007;28;20050;-87
2021/05/30 00:29:01;;;;;;;12.60;9.02;;;11.70;94.40;;;;;;5012729;28;20121;-87
2021/05/30 00:31:26;;;;;;;13.00;8.73;;;11.60;94.40;;;;;;4995929;28;20409;-86
2021/05/30 00:33:52;;;;;;;13.57;7.85;;;11.50;94.60;;;;;;4996791;28;20038;-87
2021/05/30 00:36:18;;;;;;;17.65;10.48;;;11.60;94.60;;;;;;4996259;28;20053;-86
2021/05/30 00:38:43;;;;;;;12.98;8.85;;;11.50;94.60;;;;;;4997704;28;20038;-86
2021/05/30 00:41:09;;;;;;;13.77;9.65;;;11.50;94.70;;;;;;4996331;28;20041;-86
2021/05/30 00:43:54;;;;;;;17.33;10.07;;;11.50;94.80;;;;;;4996486;28;20046;-87
2021/05/30 00:46:20;;;;;;;15.18;10.25;;;11.40;94.90;;;;;;5012538;28;20113;-86
2021/05/30 00:48:47;;;;;;;16.30;10.35;;;11.40;94.90;;;;;;4997561;28;20089;-87
2021/05/30 00:51:13;;;;;;;17.30;9.73;;;11.40;95.00;;;;;;5013570;28;20053;-86
2021/05/30 00:53:39;;;;;;;14.70;10.07;;;11.40;94.90;;;;;;5008262;28;20031;-87
2021/05/30 00:56:12;;;;;;;19.60;12.45;;;11.40;94.90;;;;;;5021086;28;20050;-86
2021/05/30 00:58:39;;;;;;;17.98;11.60;;;11.40;95.00;;;;;;4996808;28;20357;-87
2021/05/30 01:01:05;;;;;;;16.65;10.88;;;11.30;95.00;;;;;;4995876;28;20049;-86
2021/05/30 01:03:36;;;;;;;15.43;9.82;;;11.40;95.00;;;;;;5012559;28;20321;-85
2021/05/30 01:06:04;;;;;;;21.27;10.25;;;11.30;95.00;;;;;;4996618;28;20070;-86
2021/05/30 01:08:30;;;;;;;15.93;10.43;;;11.30;95.10;;;;;;4996789;28;20038;-86
2021/05/30 01:10:57;;;;;;;15.23;9.50;;;11.30;95.10;;;;;;5012731;28;20046;-87
2021/05/30 01:13:24;;;;;;;16.90;10.65;;;11.20;95.10;;;;;;5012424;28;20034;-87
2021/05/30 01:15:50;;;;;;;16.40;11.68;;;11.20;95.20;;;;;;4995991;28;20038;-86
2021/05/30 01:18:25;;;;;;;22.00;10.70;;;11.20;95.30;;;;;;5012071;28;20041;-86
2021/05/30 01:20:53;;;;;;;16.83;9.65;;;11.20;95.40;;;;;;4996573;28;20061;-85
2021/05/30 01:23:20;;;;;;;15.73;10.38;;;11.20;95.40;;;;;;5012651;28;20034;-86
2021/05/30 01:25:46;;;;;;;14.50;9.18;;;11.10;95.40;;;;;;4997025;28;20050;-85
2021/05/30 01:28:13;;;;;;;16.92;11.23;;;11.10;95.50;;;;;;5003962;28;20061;-85
2021/05/30 01:30:39;;;;;;;16.95;11.30;;;11.00;95.50;;;;;;5023187;28;20253;-86
2021/05/30 01:33:05;;;;;;;18.65;10.98;;;11.00;95.50;;;;;;5005297;28;20065;-85
2021/05/30 01:35:30;;;;;;;21.33;11.57;;;11.00;95.50;;;;;;5028314;28;20390;-84
2021/05/30 01:37:56;;;;;;;17.00;10.80;;;11.00;95.50;;;;;;5032022;28;20042;-85
2021/05/30 01:40:23;;;;;;;18.33;10.90;;;11.00;95.50;;;;;;5011368;28;20042;-86
2021/05/30 01:42:52;;;;;;;18.42;9.60;;;10.90;95.50;;;;;;5015502;28;20042;-86
2021/05/30 01:45:19;;;;;;;16.95;11.48;;;10.90;95.50;;;;;;5015935;28;20108;-85
2021/05/30 01:47:46;;;;;;;17.95;10.02;;;10.90;95.50;;;;;;5001820;28;20037;-85
2021/05/30 01:50:18;;;;;;;17.13;10.85;;;10.90;95.50;;;;;;5008782;28;20049;-84
2021/05/30 01:52:44;;;;;;;25.40;12.15;;;10.90;95.50;;;;;;5003167;28;20060;-86
2021/05/30 01:55:22;;;;;;;17.23;9.85;;;10.90;95.50;;;;;;5000333;28;20137;-85
2021/05/30 01:57:50;;;;;;;15.18;9.90;;;10.90;95.50;;;;;;4999613;28;20046;-86
2021/05/30 02:00:16;;;;;;;16.08;9.85;;;10.90;95.50;;;;;;5015222;28;20418;-86
2021/05/30 02:02:45;;;;;;;18.80;10.07;;;10.90;95.60;;;;;;5000585;28;20072;-86
2021/05/30 02:05:12;;;;;;;15.13;10.02;;;10.80;95.60;;;;;;5017951;28;20142;-86
2021/05/30 02:07:39;;;;;;;15.15;10.60;;;10.80;95.60;;;;;;5000827;28;20059;-86
2021/05/30 02:10:06;;;;;;;16.88;11.23;;;10.80;95.60;;;;;;5015033;28;20097;-86
2021/05/30 02:12:34;;;;;;;13.75;9.23;;;10.80;95.70;;;;;;4999576;28;20426;-85
2021/05/30 02:14:59;;;;;;;14.35;9.45;;;10.80;95.70;;;;;;4999813;28;20122;-86
2021/05/30 02:17:25;;;;;;;19.35;10.63;;;10.80;95.60;;;;;;5015525;28;20142;-86
2021/05/30 02:19:52;;;;;;;19.50;11.57;;;10.80;95.60;;;;;;5015242;28;20040;-86
2021/05/30 02:22:18;;;;;;;23.13;12.25;;;10.70;95.60;;;;;;4999892;28;20049;-85
2021/05/30 02:24:44;;;;;;;19.25;10.93;;;10.70;95.60;;;;;;4999306;28;20053;-86
2021/05/30 02:27:11;;;;;;;20.85;11.35;;;10.70;95.60;;;;;;4999368;28;20636;-86
2021/05/30 02:29:43;;;;;;;20.63;11.27;;;10.70;95.70;;;;;;4999399;28;20039;-86
2021/05/30 02:32:14;;;;;;;17.88;11.10;;;10.60;95.80;;;;;;5015196;28;20521;-87
2021/05/30 02:34:42;;;;;;;18.67;11.68;;;10.60;95.80;;;;;;4998150;28;20056;-86
2021/05/30 02:37:10;;;;;;;21.35;10.27;;;10.60;95.80;;;;;;4999660;28;20046;-87
2021/05/30 02:39:35;;;;;;;18.50;11.73;;;10.60;95.70;;;;;;5014746;28;20121;-86
2021/05/30 02:42:01;;;;;;;17.27;10.35;;;10.50;95.80;;;;;;4999486;28;20088;-87
2021/05/30 02:44:27;;;;;;;19.27;11.85;;;10.50;95.80;;;;;;4998960;28;20064;-86
2021/05/30 02:46:52;;;;;;;19.63;11.35;;;10.50;95.80;;;;;;5014256;28;20371;-87
2021/05/30 02:49:18;;;;;;;24.33;12.43;;;10.50;95.80;;;;;;4998337;28;20052;-87
2021/05/30 02:51:44;;;;;;;19.50;12.13;;;10.40;95.80;;;;;;4998938;28;20121;-86
2021/05/30 02:54:09;;;;;;;19.20;12.38;;;10.40;95.90;;;;;;5014733;28;20441;-86
2021/05/30 02:56:35;;;;;;;20.33;11.93;;;10.40;96.00;;;;;;5014209;28;20042;-87
2021/05/30 02:59:00;;;;;;;23.70;12.90;;;10.40;96.10;;;;;;4998967;28;20046;-86
2021/05/30 03:01:26;;;;;;;24.20;13.10;;;10.30;96.10;;;;;;5014300;28;20045;-86
2021/05/30 03:03:52;;;;;;;21.15;12.85;;;10.30;96.20;;;;;;5014089;28;20306;-86
2021/05/30 03:06:18;;;;;;;21.65;13.02;;;10.30;96.30;;;;;;4998407;28;20030;-86
2021/05/30 03:08:43;;;;;;;17.67;11.90;;;10.30;96.40;;;;;;5014224;28;20406;-87
2021/05/30 03:11:09;;;;;;;22.88;11.02;;;10.30;96.40;;;;;;5000660;28;20045;-87
2021/05/30 03:13:35;;;;;;;16.33;11.10;;;10.30;96.30;;;;;;5026469;28;20314;-86
2021/05/30 03:16:00;;;;;;;22.45;12.95;;;10.30;96.20;;;;;;5027561;28;20042;-86
2021/05/30 03:18:26;;;;;;;22.65;12.40;;;10.30;96.20;;;;;;4999888;28;20471;-86
2021/05/30 03:20:52;;;;;;;21.55;13.07;;;10.30;96.30;;;;;;5014341;28;20437;-87
2021/05/30 03:23:17;;;;;;;20.33;12.13;;;10.30;96.30;;;;;;4997887;28;20038;-85
2021/05/30 03:25:43;;;;;;;21.27;12.32;;;10.30;96.20;;;;;;4998269;28;20089;-86
2021/05/30 03:28:08;;;;;;;20.63;12.95;;;10.30;96.20;;;;;;5014251;28;20083;-86
2021/05/30 03:30:34;;;;;;;18.80;12.20;;;10.30;96.20;;;;;;5013124;28;20072;-86
2021/05/30 03:33:00;;;;;;;20.77;13.30;;;10.30;96.20;;;;;;5013745;28;20034;-87
2021/05/30 03:35:26;;;;;;;20.08;12.05;;;10.30;96.30;;;;;;5013556;28;20052;-86
2021/05/30 03:37:52;;;;;;;20.30;11.55;;;10.30;96.30;;;;;;5017984;28;20066;-86
2021/05/30 03:40:28;;;;;;;24.25;13.00;;;10.20;96.30;;;;;;5022676;28;20058;-86
2021/05/30 03:42:53;;;;;;;19.33;11.52;;;10.30;96.40;;;;;;5013469;28;20043;-85
2021/05/30 03:45:21;;;;;;;17.23;11.85;;;10.20;96.40;;;;;;4998048;28;20057;-84
2021/05/30 03:47:47;;;;;;;20.05;11.73;;;10.30;96.50;;;;;;4999163;28;20109;-85
2021/05/30 03:50:12;;;;;;;22.15;12.55;;;10.30;96.50;;;;;;5031564;28;20038;-87
2021/05/30 03:52:38;;;;;;;20.52;12.05;;;10.30;96.50;;;;;;5014667;28;20045;-86
2021/05/30 03:55:05;;;;;;;21.45;11.93;;;10.30;96.50;;;;;;5013913;28;20038;-86
2021/05/30 03:57:31;;;;;;;24.85;13.25;;;10.40;96.60;;;;;;4997360;28;20153;-85
2021/05/30 03:59:58;;;;;;;21.90;13.45;;;10.40;96.60;;;;;;4997958;28;20053;-86
2021/05/30 04:02:24;;;;;;;22.95;12.98;;;10.40;96.70;;;;;;4997508;28;20394;-86
2021/05/30 04:04:50;;;;;;;23.13;13.25;;;10.40;96.70;;;;;;4997164;28;20065;-86
2021/05/30 04:07:15;;;;;;;20.83;12.32;;;10.50;96.70;;;;;;5013253;28;20042;-85
2021/05/30 04:09:41;;;;;;;17.38;12.32;;;10.50;96.70;;;;;;4997465;28;20073;-85
2021/05/30 04:12:07;;;;;;;20.67;11.23;;;10.50;96.40;;;;;;5013074;28;20086;-86
2021/05/30 04:14:32;;;;;;;20.90;12.35;;;10.50;96.50;;;;;;5012872;28;20065;-85
2021/05/30 04:16:58;;;;;;;19.10;11.80;;;10.60;96.50;;;;;;5012958;28;20085;-86
2021/05/30 04:19:23;;;;;;;18.55;11.05;;;10.60;96.50;;;;;;5012488;28;20145;-85
2021/05/30 04:21:48;;;;;;;20.40;11.05;;;10.60;96.40;;;;;;5013236;28;20124;-85
2021/05/30 04:24:14;;;;;;;20.10;10.95;;;10.60;96.40;;;;;;4996316;28;20343;-85
2021/05/30 04:26:40;;;;;;;18.67;11.20;;;10.60;96.40;;;;;;4997952;28;20046;-86
2021/05/30 04:29:05;;;;;;;18.42;11.48;;;10.60;96.40;;;;;;5001380;28;20046;-85
2021/05/30 04:31:31;;;;;;;21.90;11.38;;;10.60;96.30;;;;;;5025394;28;20042;-85
2021/05/30 04:33:56;;;;;;;17.45;11.18;;;10.70;96.30;;;;;;5013490;28;20137;-85
2021/05/30 04:36:22;;;;;;;16.75;10.43;;;10.70;96.20;;;;;;4996650;28;20492;-85
2021/05/30 04:38:47;;;;;;;14.65;9.55;;;10.80;96.20;;;;;;4997354;28;20088;-84
2021/05/30 04:41:13;;;;;;;19.27;10.90;;;10.80;96.20;;;;;;5012286;28;20046;-86
2021/05/30 04:43:38;;;;;;;16.90;9.43;;;10.80;96.10;;;;;;5012232;28;20038;-85
2021/05/30 04:46:04;;;;;;;18.17;10.05;;;10.80;96.00;;;;;;5012398;28;20290;-84
2021/05/30 04:48:29;;;;;;;16.48;9.77;;;10.80;96.10;;;;;;5012873;28;20057;-85
2021/05/30 04:51:12;;;;;;;17.05;9.88;;;10.80;96.10;;;;;;4997066;28;20049;-85
2021/05/30 04:53:42;;;;;;;14.68;9.52;;;10.80;96.10;;;;;;4996761;28;20046;-85
2021/05/30 04:56:09;;;;;;;16.17;9.38;;;10.90;96.00;;;;;;5012342;28;20042;-86
2021/05/30 04:58:35;;;;;;;14.32;8.95;;;10.90;96.00;;;;;;4995884;28;20125;-86
2021/05/30 05:01:05;;;;;;;12.70;8.77;;;11.00;95.80;;;;;;4997396;28;20118;-85
2021/05/30 05:03:34;;;;;;;14.95;9.18;;;11.00;95.80;;;;;;5002923;28;20432;-85
2021/05/30 05:06:00;;;;;;;15.45;8.88;;;11.00;96.00;;;;;;5030133;28;20034;-85
2021/05/30 05:08:26;;;;;;;15.48;9.65;;;11.10;95.80;;;;;;5017446;28;20125;-86
2021/05/30 05:10:52;;;;;;;19.95;9.63;;;11.10;95.60;;;;;;5019125;28;20097;-86
2021/05/30 05:13:19;;;;;;;10.82;8.18;;;11.20;95.40;;;;;;5004559;28;20037;-85
2021/05/30 05:15:47;;;;;;;11.48;7.90;;;11.20;95.10;;;;;;4999850;28;20042;-85
2021/05/30 05:18:17;;;;;;;17.42;8.88;;;11.30;95.00;;;;;;5015825;28;20480;-85
2021/05/30 05:20:44;;;;;;;13.32;8.45;;;11.30;94.80;;;;;;5000344;28;20038;-86
2021/05/30 05:23:19;;;;;;;11.10;7.72;;;11.30;94.70;;;;;;5000289;28;20317;-86
2021/05/30 05:25:55;;;;;;;14.05;8.32;;;11.30;94.80;;;;;;5016484;28;20042;-84
2021/05/30 05:28:23;;;;;;;12.93;8.07;;;11.40;94.70;;;;;;5008243;28;20041;-86
2021/05/30 05:30:50;;;;;;;16.17;9.23;;;11.40;94.70;;;;;;4999759;28;20101;-86
2021/05/30 05:33:15;;;;;;;13.70;9.60;;;11.40;94.80;;;;;;4999955;28;20394;-86
2021/05/30 05:35:41;;;;;;;13.73;8.90;;;11.50;94.70;;;;;;5000336;28;20111;-86
2021/05/30 05:38:07;;;;;;;11.25;7.88;;;11.50;94.30;;;;;;5000529;28;20352;-86
2021/05/30 05:40:32;;;;;;;12.60;8.10;;;11.60;94.30;;;;;;5010956;28;20039;-84
2021/05/30 05:42:58;;;;;;;15.95;8.60;;;11.60;94.20;;;;;;5018651;28;20033;-84
2021/05/30 05:45:24;;;;;;;12.13;7.60;;;11.70;94.00;;;;;;5018740;28;20105;-85
2021/05/30 05:47:51;;;;;;;10.90;7.75;;;11.70;94.00;;;;;;5013492;28;20046;-85
2021/05/30 05:50:19;;;;;;;12.68;7.70;;;11.80;93.90;;;;;;4999519;28;20120;-86
2021/05/30 05:52:46;;;;;;;9.75;7.45;;;11.80;93.70;;;;;;4999048;28;20042;-86
2021/05/30 05:55:12;;;;;;;12.38;6.63;;;11.90;92.80;;;;;;5000394;28;20383;-85
2021/05/30 05:57:39;;;;;;;10.55;6.28;;;11.90;92.60;;;;;;4998883;28;20056;-86
2021/05/30 06:00:07;;;;;;;9.90;6.07;;;12.00;92.50;;;;;;4999586;28;20038;-87
2021/05/30 06:02:33;;;;;;;11.73;5.60;;;12.10;92.00;;;;;;4999865;28;20038;-86
2021/05/30 06:04:59;;;;;;;8.05;5.10;;;12.20;91.00;;;;;;4999292;28;20049;-86
2021/05/30 06:07:24;;;;;;;12.82;5.22;;;12.30;90.60;;;;;;5015525;28;20038;-85
2021/05/30 06:09:53;;;;;;;11.93;4.95;;;12.30;90.40;;;;;;5015309;28;20297;-85
2021/05/30 06:12:19;;;;;;;5.85;4.47;;;12.30;89.60;;;;;;5014826;28;20068;-85
2021/05/30 06:14:45;;;;;;;7.50;4.70;;;12.40;89.40;;;;;;5021000;28;20078;-85
2021/05/30 06:17:11;;;;;;;8.43;5.60;;;12.40;89.90;;;;;;5008857;28;20057;-87
2021/05/30 06:19:37;;;;;;;9.73;4.68;;;12.50;89.50;;;;;;5015637;28;20398;-86
2021/05/30 06:22:04;;;;;;;9.45;5.22;;;12.50;88.30;;;;;;5015252;28;20073;-85
2021/05/30 06:24:30;;;;;;;7.70;4.78;;;12.60;89.50;;;;;;4999507;28;20038;-85
2021/05/30 06:26:57;;;;;;;6.53;3.83;;;12.70;88.20;;;;;;5014356;28;20387;-86
2021/05/30 06:29:22;;;;;;;7.82;4.78;;;12.80;87.60;;;;;;5015052;28;20046;-86
2021/05/30 06:31:48;;;;;;;6.20;3.92;;;12.90;85.20;;;;;;5014421;28;20057;-85
2021/05/30 06:34:15;;;;;;;6.95;3.28;;;13.00;86.60;;;;;;4999201;28;20350;-85
2021/05/30 06:36:46;;;;;;;5.68;3.95;;;13.10;84.60;;;;;;4998230;28;20456;-85
2021/05/30 06:39:11;;;;;;;9.30;4.35;;;13.20;85.20;;;;;;4998592;28;20085;-86
2021/05/30 06:41:38;;;;;;;7.13;4.35;;;13.20;84.60;;;;;;4998946;28;20499;-86
2021/05/30 06:44:05;;;;;;;14.27;4.43;;;13.20;84.50;;;;;;5014282;28;20038;-86
2021/05/30 06:46:31;;;;;;;8.80;4.30;;;13.30;85.70;;;;;;5014669;28;20050;-85
2021/05/30 06:48:57;;;;;;;7.18;5.28;;;13.40;86.10;;;;;;5014902;28;20035;-86
2021/05/30 06:51:26;;;;;;;7.10;3.60;;;13.50;86.30;;;;;;5023596;28;20353;-85
2021/05/30 06:53:52;;;;;;;6.47;3.08;;;13.70;83.80;;;;;;5002549;28;20286;-87
2021/05/30 06:56:18;;;;;;;4.75;2.83;;;13.80;81.40;;;;;;4999732;28;20038;-85
2021/05/30 06:58:44;;;;;;;4.60;2.63;;;13.80;81.00;;;;;;4998565;28;20031;-85
2021/05/30 07:01:11;;;;;;;6.05;3.05;;;14.00;80.30;;;;;;5014126;28;20283;-86
2021/05/30 07:03:37;;;;;;;3.30;2.13;;;14.10;81.40;;;;;;4998221;28;20030;-85
2021/05/30 07:06:02;;;;;;;2.92;2.00;;;14.30;77.60;;;;;;4998461;28;20104;-85
2021/05/30 07:08:28;;;;;;;5.13;2.33;;;14.40;78.50;;;;;;4998592;28;20406;-85
2021/05/30 07:10:53;;;;;;;3.92;2.17;;;14.50;78.80;;;;;;4998467;28;20128;-86
2021/05/30 07:13:20;;;;;;;4.63;2.58;;;14.70;77.60;;;;;;4998431;28;20034;-86
2021/05/30 07:15:45;;;;;;;3.83;2.35;;;14.90;78.20;;;;;;5021706;28;20056;-86
2021/05/30 07:18:11;;;;;;;4.45;2.13;;;15.00;77.20;;;;;;5001073;28;20129;-86
2021/05/30 07:20:37;;;;;;;5.95;2.35;;;15.20;75.00;;;;;;5013469;28;20046;-85
2021/05/30 07:23:02;;;;;;;3.78;2.03;;;15.30;75.70;;;;;;5013958;28;20306;-86
2021/05/30 07:25:28;;;;;;;3.05;1.90;;;15.40;75.70;;;;;;5003110;28;20106;-86
2021/05/30 07:27:53;;;;;;;2.55;1.77;;;15.50;77.20;;;;;;5009611;28;20132;-86
2021/05/30 07:30:19;;;;;;;2.42;1.25;;;15.70;71.70;;;;;;5001710;28;20038;-85
2021/05/30 07:32:45;;;;;;;4.57;1.63;;;15.80;69.50;;;;;;4998610;28;20073;-85
2021/05/30 07:35:11;;;;;;;3.00;1.27;;;15.80;70.90;;;;;;5013749;28;20069;-85
2021/05/30 07:37:36;;;;;;;2.50;1.40;;;15.80;70.90;;;;;;5013358;28;20034;-85
2021/05/30 07:40:04;;;;;;;3.17;1.50;;;15.90;69.90;;;;;;4997868;28;20042;-84
2021/05/30 07:42:29;;;;;;;2.97;1.23;;;15.90;71.50;;;;;;4997241;28;20422;-85
2021/05/30 07:44:55;;;;;;;1.63;1.25;;;16.00;68.20;;;;;;4997036;28;20042;-83
2021/05/30 07:47:23;;;;;;;2.75;1.45;;;16.00;69.50;;;;;;4997609;28;20113;-86
2021/05/30 07:49:49;;;;;;;4.65;1.75;;;16.00;68.30;;;;;;4997503;28;20038;-85
2021/05/30 07:52:14;;;;;;;6.25;1.35;;;16.20;67.70;;;;;;5013158;28;20416;-84
2021/05/30 07:54:39;;;;;;;4.38;1.85;;;16.20;67.60;;;;;;5012898;28;20053;-85
2021/05/30 07:57:05;;;;;;;2.15;1.17;;;16.20;66.70;;;;;;4996558;28;20125;-85
2021/05/30 07:59:31;;;;;;;4.70;1.60;;;16.20;66.90;;;;;;4997171;28;20073;-85
2021/05/30 08:01:57;;;;;;;3.67;1.20;;;16.20;68.30;;;;;;5009274;28;20149;-85
2021/05/30 08:04:23;;;;;;;2.67;1.27;;;16.20;66.50;;;;;;5019516;28;20056;-86
2021/05/30 08:06:49;;;;;;;3.85;1.20;;;16.20;65.40;;;;;;4998460;28;20042;-86
2021/05/30 08:09:14;;;;;;;3.05;1.63;;;16.30;68.50;;;;;;4996313;28;20271;-86
2021/05/30 08:11:40;;;;;;;2.40;1.25;;;16.30;68.40;;;;;;4996610;28;20275;-85
2021/05/30 08:14:05;;;;;;;1.70;1.20;;;16.40;66.70;;;;;;5012728;28;20050;-84
2021/05/30 08:16:31;;;;;;;2.35;1.35;;;16.60;69.40;;;;;;4997392;28;20521;-85
2021/05/30 08:18:56;;;;;;;3.03;1.30;;;16.80;63.50;;;;;;4997235;28;20122;-86
2021/05/30 08:21:22;;;;;;;4.15;1.25;;;16.90;64.90;;;;;;5013116;28;20058;-87
2021/05/30 08:23:49;;;;;;;4.38;1.30;;;17.10;62.80;;;;;;4996523;28;20046;-86
2021/05/30 08:26:15;;;;;;;2.65;1.20;;;17.00;63.50;;;;;;4996509;28;20114;-86
2021/05/30 08:28:41;;;;;;;2.75;1.27;;;17.10;62.50;;;;;;5013086;28;20046;-84
2021/05/30 08:31:06;;;;;;;4.28;2.25;;;17.10;63.80;;;;;;5012796;28;20379;-86
2021/05/30 08:33:32;;;;;;;2.00;1.25;;;17.10;61.70;;;;;;4997051;28;20089;-85
2021/05/30 08:35:57;;;;;;;3.17;1.25;;;17.10;64.00;;;;;;5004611;28;20042;-85
2021/05/30 08:38:23;;;;;;;2.67;1.15;;;17.20;63.00;;;;;;5009716;28;20440;-85
2021/05/30 08:40:50;;;;;;;1.48;1.10;;;17.30;61.70;;;;;;5019847;28;20142;-86
2021/05/30 08:43:16;;;;;;;2.80;1.20;;;17.40;64.70;;;;;;5000657;28;20133;-86
2021/05/30 08:45:43;;;;;;;2.30;1.25;;;17.60;64.50;;;;;;5016970;28;20129;-84
2021/05/30 08:48:09;;;;;;;4.22;1.25;;;17.70;61.90;;;;;;5000148;28;20049;-86
2021/05/30 08:50:35;;;;;;;4.82;1.20;;;17.80;62.60;;;;;;5017687;28;20034;-86
2021/05/30 08:53:01;;;;;;;5.85;2.20;;;18.00;61.60;;;;;;5013410;28;20038;-85
2021/05/30 08:55:27;;;;;;;2.75;1.13;;;18.10;62.20;;;;;;5003730;28;20042;-87
2021/05/30 08:57:52;;;;;;;2.28;1.00;;;18.20;61.20;;;;;;5001486;28;20081;-85
2021/05/30 09:00:26;;;;;;;2.10;1.58;;;18.20;57.20;;;;;;5016533;28;20038;-86
2021/05/30 09:03:15;;;;;;;3.22;1.10;;;18.20;59.20;;;;;;5010303;28;20149;-87
2021/05/30 09:05:41;;;;;;;4.55;1.30;;;18.30;62.20;;;;;;5001146;28;20050;-86
2021/05/30 09:08:08;;;;;;;1.52;1.05;;;18.20;57.20;;;;;;5000843;28;20041;-85
2021/05/30 09:10:34;;;;;;;5.78;1.50;;;18.30;57.90;;;;;;5000481;28;20042;-86
2021/05/30 09:13:11;;;;;;;2.53;1.25;;;18.30;61.80;;;;;;5016411;28;20365;-86
2021/05/30 09:18:34;;;;;;;2.00;1.08;;;18.70;59.60;;;;;;5000256;28;20093;-86
2021/05/30 09:21:05;;;;;;;3.08;1.20;;;18.90;55.90;;;;;;5016634;28;20154;-86
2021/05/30 09:23:32;;;;;;;1.30;1.05;;;18.90;57.30;;;;;;5000801;28;20046;-87
2021/05/30 09:26:17;;;;;;;3.63;1.10;;;18.90;56.00;;;;;;5000985;28;20424;-86
2021/05/30 09:29:11;;;;;;;3.10;1.25;;;18.90;53.60;;;;;;5015824;28;20050;-87
2021/05/30 09:31:58;;;;;;;3.88;0.80;;;18.90;55.60;;;;;;5019478;28;20070;-87
2021/05/30 09:34:27;;;;;;;3.40;1.20;;;19.00;53.90;;;;;;4999890;28;20038;-87
2021/05/30 09:36:54;;;;;;;1.40;1.10;;;19.10;54.30;;;;;;5000274;28;20033;-86
2021/05/30 09:39:39;;;;;;;2.45;0.95;;;19.20;55.40;;;;;;5000436;28;20062;-87
2021/05/30 09:42:36;;;;;;;2.70;1.00;;;19.40;56.30;;;;;;5000092;28;20056;-88
2021/05/30 09:45:09;;;;;;;2.45;0.90;;;19.40;56.60;;;;;;5015848;28;20038;-87
2021/05/30 09:47:44;;;;;;;1.92;1.10;;;19.30;55.10;;;;;;5000445;28;20034;-86
2021/05/30 09:50:17;;;;;;;4.68;1.58;;;19.30;54.80;;;;;;5000273;28;20046;-86
2021/05/30 09:52:52;;;;;;;1.25;1.05;;;19.40;55.50;;;;;;5001366;28;20105;-87
2021/05/30 09:55:26;;;;;;;3.38;1.35;;;19.50;56.20;;;;;;5025036;28;20026;-86
2021/05/30 09:58:16;;;;;;;3.03;1.10;;;19.60;54.10;;;;;;5036369;28;20038;-87
2021/05/30 10:00:44;;;;;;;2.45;1.10;;;19.70;57.20;;;;;;5032026;28;20050;-87
2021/05/30 10:03:10;;;;;;;1.75;0.95;;;19.80;54.60;;;;;;5003520;28;20039;-87
2021/05/30 10:05:37;;;;;;;2.53;1.13;;;20.00;55.00;;;;;;5021708;28;20054;-86
2021/05/30 10:08:03;;;;;;;3.58;1.35;;;20.00;52.80;;;;;;5019045;28;20034;-87
2021/05/30 10:10:30;;;;;;;2.38;1.08;;;20.10;55.50;;;;;;5016049;28;20131;-86
2021/05/30 10:12:55;;;;;;;2.38;1.45;;;20.20;54.50;;;;;;5000386;28;20084;-87
2021/05/30 10:15:22;;;;;;;1.67;0.82;;;20.40;56.10;;;;;;4999376;28;20054;-85
2021/05/30 10:17:52;;;;;;;2.05;1.38;;;20.60;55.40;;;;;;5015346;28;20325;-85
2021/05/30 10:20:23;;;;;;;4.38;1.23;;;20.80;54.20;;;;;;4998892;28;20042;-86
2021/05/30 10:22:54;;;;;;;4.25;1.50;;;20.90;56.70;;;;;;5015834;28;20128;-86
2021/05/30 10:25:31;;;;;;;2.30;1.00;;;21.10;53.70;;;;;;5015418;28;20049;-86
2021/05/30 10:28:19;;;;;;;2.42;1.23;;;21.30;52.20;;;;;;5015054;28;20065;-87
2021/05/30 10:30:48;;;;;;;1.40;0.90;;;21.30;52.50;;;;;;5015486;28;20129;-86
2021/05/30 10:33:24;;;;;;;5.32;1.55;;;21.10;52.10;;;;;;5018444;28;20417;-86
2021/05/30 10:35:53;;;;;;;2.58;1.30;;;21.10;54.70;;;;;;4999642;28;20504;-87
2021/05/30 10:38:37;;;;;;;2.13;1.13;;;21.10;53.30;;;;;;5007423;28;20030;-88
2021/05/30 10:41:14;;;;;;;5.70;1.33;;;20.80;52.30;;;;;;5004535;28;20144;-87
2021/05/30 10:43:39;;;;;;;1.17;0.77;;;20.80;53.40;;;;;;4999973;28;20038;-87
2021/05/30 10:46:06;;;;;;;1.88;1.00;;;20.80;53.20;;;;;;5015128;28;20115;-87
2021/05/30 10:48:33;;;;;;;2.60;1.27;;;20.90;52.20;;;;;;5027851;28;20139;-86
2021/05/30 10:51:02;;;;;;;4.30;1.27;;;20.80;52.10;;;;;;5015702;28;20077;-87
2021/05/30 10:53:37;;;;;;;3.25;1.20;;;20.90;53.20;;;;;;4998762;28;20049;-87
2021/05/30 10:56:22;;;;;;;3.40;1.67;;;21.00;52.80;;;;;;5000675;28;20715;-86
2021/05/30 10:59:06;;;;;;;2.33;1.23;;;21.10;51.50;;;;;;4997653;28;20049;-86
2021/05/30 11:01:34;;;;;;;2.28;1.17;;;21.10;51.00;;;;;;4998984;28;20040;-87
2021/05/30 11:04:31;;;;;;;1.35;0.93;;;21.20;53.40;;;;;;4997968;28;20038;-86
2021/05/30 11:07:13;;;;;;;2.63;1.00;;;21.30;53.90;;;;;;4998766;28;20394;-87
2021/05/30 11:09:51;;;;;;;2.43;1.30;;;21.30;51.00;;;;;;4998214;28;20362;-86
2021/05/30 11:12:18;;;;;;;2.63;1.15;;;21.30;52.60;;;;;;4998595;28;20390;-87
2021/05/30 11:15:13;;;;;;;1.70;1.17;;;21.20;52.70;;;;;;5009308;28;20053;-88
2021/05/30 11:17:43;;;;;;;3.60;1.30;;;21.30;51.60;;;;;;5004974;28;20406;-87
2021/05/30 11:20:11;;;;;;;1.85;0.98;;;21.30;51.80;;;;;;4999179;28;20428;-87
2021/05/30 11:22:48;;;;;;;2.35;1.20;;;21.30;49.70;;;;;;4997669;28;20073;-88
2021/05/30 11:25:18;;;;;;;2.15;1.25;;;21.30;51.30;;;;;;4997593;28;20034;-89
2021/05/30 11:28:11;;;;;;;3.47;0.93;;;21.30;53.40;;;;;;4998699;28;20038;-87
2021/05/30 11:30:48;;;;;;;;;;;21.30;50.10;;;;;;4998202;28;20034;-88
2021/05/30 11:33:26;;;;;;;1.65;0.95;;;21.10;51.00;;;;;;5014029;28;20009;-87
2021/05/30 11:35:53;;;;;;;1.52;1.00;;;21.10;52.60;;;;;;4998319;28;20041;-87
2021/05/30 11:38:19;;;;;;;1.70;0.90;;;21.30;49.40;;;;;;5013705;28;20042;-87
2021/05/30 11:40:45;;;;;;;2.00;1.00;;;21.40;47.90;;;;;;5013795;28;20042;-87
2021/05/30 11:43:17;;;;;;;1.77;0.82;;;21.60;49.00;;;;;;4998364;28;20472;-87
2021/05/30 11:45:45;;;;;;;1.48;1.00;;;21.70;47.60;;;;;;5013745;28;20042;-87
2021/05/30 11:48:16;;;;;;;6.82;1.23;;;21.70;50.50;;;;;;4998691;28;20125;-87
2021/05/30 11:50:52;;;;;;;2.37;1.20;;;21.50;48.70;;;;;;5013234;28;20121;-87
2021/05/30 11:53:34;;;;;;;1.02;0.80;;;21.40;50.30;;;;;;4998803;28;20038;-88
2021/05/30 11:56:02;;;;;;;1.95;0.95;;;21.50;48.90;;;;;;4997170;28;20043;-87
2021/05/30 11:58:28;;;;;;;1.77;1.00;;;21.70;48.90;;;;;;4998243;28;20073;-87
2021/05/30 12:01:03;;;;;;;1.58;0.88;;;21.80;46.60;;;;;;5013824;28;20073;-87
2021/05/30 12:03:29;;;;;;;2.72;1.10;;;21.90;48.10;;;;;;5021696;28;20092;-87
2021/05/30 12:06:02;;;;;;;7.97;1.63;;;21.80;48.70;;;;;;5022252;28;20329;-88
2021/05/30 12:08:29;;;;;;;1.65;1.02;;;21.70;47.90;;;;;;4998282;28;20077;-88
2021/05/30 12:10:57;;;;;;;1.25;0.80;;;21.80;49.40;;;;;;5012932;28;20042;-87
2021/05/30 12:13:27;;;;;;;1.50;1.00;;;21.90;46.60;;;;;;5013841;28;20042;-87
2021/05/30 12:15:53;;;;;;;3.40;1.13;;;22.00;46.80;;;;;;5013378;28;20038;-89
2021/05/30 12:18:18;;;;;;;1.40;0.70;;;22.10;46.40;;;;;;4997133;28;20049;-87
2021/05/30 12:20:45;;;;;;;2.95;1.00;;;22.20;44.10;;;;;;4998104;28;20113;-88
2021/05/30 12:23:15;;;;;;;1.67;0.60;;;22.40;47.40;;;;;;5013815;28;20053;-87
2021/05/30 12:25:48;;;;;;;3.50;1.05;;;22.20;44.00;;;;;;5008604;28;20061;-87
2021/05/30 12:28:14;;;;;;;1.70;0.77;;;22.20;44.80;;;;;;5001189;28;20043;-87
2021/05/30 12:30:39;;;;;;;2.15;1.00;;;22.20;47.20;;;;;;4999642;28;20044;-87
2021/05/30 12:33:05;;;;;;;1.30;0.60;;;22.30;47.40;;;;;;5008306;28;20039;-88
2021/05/30 12:35:50;;;;;;;3.42;0.93;;;22.40;43.50;;;;;;4997900;28;20046;-88
2021/05/30 12:38:19;;;;;;;2.17;0.77;;;22.50;44.50;;;;;;4996749;28;20050;-88
2021/05/30 12:40:46;;;;;;;3.75;0.90;;;22.70;46.00;;;;;;5007155;28;20069;-87
2021/05/30 12:43:12;;;;;;;1.45;0.70;;;22.70;44.20;;;;;;5000786;28;20041;-88
2021/05/30 12:45:54;;;;;;;1.20;0.65;;;22.50;43.10;;;;;;5013075;28;20314;-87
2021/05/30 12:48:20;;;;;;;2.13;0.90;;;22.30;44.00;;;;;;4997536;28;20060;-87
2021/05/30 12:50:45;;;;;;;1.35;0.60;;;22.30;44.90;;;;;;5013455;28;20120;-87